createdAt,value
2022-08-22T00:02:17.474Z,3.10
2022-08-22T00:03:06.692Z,2.70
2022-08-22T00:03:15.512Z,2.70
2022-08-22T00:04:51.145Z,3.47
2022-08-22T00:07:35.966Z,3.58
2022-08-22T00:10:11.711Z,3.97
2022-08-22T00:12:58.512Z,3.75
2022-08-22T00:15:43.071Z,3.10
2022-08-22T00:18:30.555Z,3.05
2022-08-22T00:21:05.610Z,3.03
2022-08-22T00:23:38.838Z,3.42
2022-08-22T00:26:14.632Z,3.17
2022-08-22T00:28:50.091Z,3.40
2022-08-22T00:31:25.699Z,3.33
2022-08-22T00:33:52.090Z,3.15
2022-08-22T00:36:37.662Z,3.25
2022-08-22T00:39:07.276Z,2.90
2022-08-22T00:41:41.836Z,3.90
2022-08-22T00:44:27.146Z,3.13
2022-08-22T00:47:06.102Z,2.83
2022-08-22T00:49:50.894Z,3.15
2022-08-22T00:52:29.423Z,3.15
2022-08-22T00:55:04.254Z,3.30
2022-08-22T00:57:38.198Z,3.20
2022-08-22T01:00:09.599Z,3.10
2022-08-22T01:02:54.801Z,3.60
2022-08-22T01:05:27.345Z,3.22
2022-08-22T01:08:12.865Z,3.30
2022-08-22T01:10:49.502Z,3.33
2022-08-22T01:13:27.978Z,3.45
2022-08-22T01:16:08.927Z,3.22
2022-08-22T01:19:00.218Z,3.45
2022-08-22T01:21:32.830Z,3.58
2022-08-22T01:24:19.917Z,3.67
2022-08-22T01:27:05.188Z,3.65
2022-08-22T01:30:05.021Z,3.53
2022-08-22T01:32:31.399Z,3.65
2022-08-22T01:35:04.047Z,3.05
2022-08-22T01:37:43.663Z,2.92
2022-08-22T01:40:29.660Z,3.22
2022-08-22T01:42:56.171Z,3.17
2022-08-22T01:45:41.387Z,3.15
2022-08-22T01:48:14.777Z,3.10
2022-08-22T01:50:44.743Z,3.55
2022-08-22T01:53:19.181Z,3.25
2022-08-22T01:55:56.786Z,3.13
2022-08-22T01:58:25.182Z,3.05
2022-08-22T02:00:59.864Z,3.10
2022-08-22T02:03:31.645Z,3.08
2022-08-22T02:06:03.015Z,3.30
2022-08-22T02:08:44.893Z,3.15
2022-08-22T02:11:31.310Z,3.08
2022-08-22T02:14:04.972Z,3.35
2022-08-22T02:16:35.312Z,3.45
2022-08-22T02:19:10.612Z,3.22
2022-08-22T02:21:40.549Z,3.40
2022-08-22T02:24:25.837Z,3.23
2022-08-22T02:27:21.472Z,3.40
2022-08-22T02:30:00.182Z,2.88
2022-08-22T02:32:32.819Z,3.80
2022-08-22T02:35:08.346Z,3.17
2022-08-22T02:37:48.502Z,3.35
2022-08-22T02:40:27.311Z,3.15
2022-08-22T02:42:58.437Z,3.70
2022-08-22T02:45:43.024Z,3.17
2022-08-22T02:48:15.316Z,3.17
2022-08-22T02:51:00.560Z,3.13
2022-08-22T02:53:49.763Z,2.85
2022-08-22T02:56:42.284Z,3.03
2022-08-22T02:59:14.341Z,3.20
2022-08-22T03:01:45.322Z,3.53
2022-08-22T03:04:14.762Z,3.13
2022-08-22T03:06:45.764Z,3.78
2022-08-22T03:09:12.076Z,3.00
2022-08-22T03:11:40.031Z,3.13
2022-08-22T03:14:07.311Z,2.47
2022-08-22T03:16:36.942Z,3.20
2022-08-22T03:19:06.940Z,3.20
2022-08-22T03:21:42.456Z,2.77
2022-08-22T03:24:35.180Z,2.75
2022-08-22T03:27:05.974Z,3.10
2022-08-22T03:32:10.391Z,3.00
2022-08-22T03:34:37.543Z,3.67
2022-08-22T03:37:22.281Z,3.47
2022-08-22T03:39:54.612Z,3.10
2022-08-22T03:42:24.261Z,3.85
2022-08-22T03:45:02.711Z,3.63
2022-08-22T03:47:33.506Z,3.47
2022-08-22T03:50:25.488Z,3.72
2022-08-22T03:53:18.591Z,3.50
2022-08-22T03:55:48.732Z,3.60
2022-08-22T03:58:34.050Z,3.75
2022-08-22T04:01:10.542Z,3.80
2022-08-22T04:03:55.875Z,3.42
2022-08-22T04:06:42.662Z,3.50
2022-08-22T04:09:12.462Z,3.75
2022-08-22T04:11:39.503Z,3.37
2022-08-22T04:14:24.113Z,3.42
2022-08-22T04:17:01.172Z,3.63
2022-08-22T04:19:28.099Z,3.20
2022-08-22T04:22:15.899Z,3.55
2022-08-22T04:24:47.318Z,4.20
2022-08-22T04:27:31.025Z,3.42
2022-08-22T04:30:01.894Z,3.45
2022-08-22T04:32:41.483Z,4.28
2022-08-22T04:35:09.690Z,3.70
2022-08-22T04:37:48.438Z,3.47
2022-08-22T04:40:24.326Z,4.60
2022-08-22T04:42:54.201Z,4.28
2022-08-22T04:45:20.591Z,4.03
2022-08-22T04:48:10.111Z,4.78
2022-08-22T04:50:43.192Z,4.13
2022-08-22T04:53:30.912Z,4.00
2022-08-22T04:56:10.724Z,4.30
2022-08-22T04:58:56.296Z,4.25
2022-08-22T05:01:25.759Z,4.35
2022-08-22T05:04:00.813Z,4.38
2022-08-22T05:06:29.823Z,4.45
2022-08-22T05:08:59.502Z,4.47
2022-08-22T05:11:26.862Z,5.43
2022-08-22T05:14:05.594Z,4.20
2022-08-22T05:16:39.704Z,4.97
2022-08-22T05:19:27.055Z,4.60
2022-08-22T05:21:57.412Z,4.50
2022-08-22T05:24:28.620Z,4.25
2022-08-22T05:26:57.252Z,4.57
2022-08-22T05:29:25.512Z,4.53
2022-08-22T05:31:57.155Z,4.88
2022-08-22T05:34:24.989Z,4.63
2022-08-22T05:37:24.048Z,5.32
2022-08-22T05:39:53.914Z,4.50
2022-08-22T05:42:29.945Z,4.60
2022-08-22T05:44:56.479Z,4.57
2022-08-22T05:47:24.422Z,4.28
2022-08-22T05:50:02.566Z,4.50
2022-08-22T05:52:44.367Z,4.25
2022-08-22T05:55:23.099Z,4.35
2022-08-22T05:58:04.096Z,4.82
2022-08-22T06:00:35.152Z,4.72
2022-08-22T06:03:13.740Z,4.20
2022-08-22T06:05:41.170Z,5.00
2022-08-22T06:08:11.526Z,4.55
2022-08-22T06:10:48.241Z,4.05
2022-08-22T06:13:24.330Z,4.80
2022-08-22T06:15:55.256Z,5.60
2022-08-22T06:18:25.184Z,4.90
2022-08-22T06:20:53.969Z,4.85
2022-08-22T06:23:23.506Z,5.07
2022-08-22T06:25:50.691Z,5.30
2022-08-22T06:28:23.953Z,5.28
2022-08-22T06:30:52.784Z,6.07
2022-08-22T06:33:22.614Z,5.85
2022-08-22T06:36:08.264Z,5.47
2022-08-22T06:38:57.866Z,6.22
2022-08-22T06:41:45.213Z,5.68
2022-08-22T06:44:15.936Z,6.07
2022-08-22T06:46:43.952Z,8.45
2022-08-22T06:49:11.639Z,7.80
2022-08-22T06:51:38.619Z,6.45
2022-08-22T06:54:06.713Z,6.57
2022-08-22T06:56:40.325Z,6.60
2022-08-22T06:59:09.281Z,5.50
2022-08-22T07:01:39.744Z,5.53
2022-08-22T07:04:07.915Z,5.20
2022-08-22T07:06:46.418Z,5.80
2022-08-22T07:09:27.611Z,5.15
2022-08-22T07:14:39.627Z,5.13
2022-08-22T07:17:10.148Z,5.72
2022-08-22T07:19:38.657Z,5.50
2022-08-22T07:22:25.038Z,5.43
2022-08-22T07:25:02.532Z,5.53
2022-08-22T07:27:44.031Z,5.45
2022-08-22T07:30:16.445Z,5.32
2022-08-22T07:32:57.765Z,5.72
2022-08-22T07:35:53.741Z,5.85
2022-08-22T07:38:36.089Z,6.07
2022-08-22T07:41:11.353Z,5.38
2022-08-22T07:43:41.415Z,5.18
2022-08-22T07:46:18.261Z,5.93
2022-08-22T07:49:08.570Z,5.40
2022-08-22T07:51:40.187Z,5.80
2022-08-22T07:54:11.180Z,5.60
2022-08-22T07:56:43.159Z,5.32
2022-08-22T07:59:12.938Z,5.70
2022-08-22T08:01:45.163Z,5.72
2022-08-22T08:04:14.919Z,5.10
2022-08-22T08:06:41.434Z,4.93
2022-08-22T08:09:09.748Z,5.03
2022-08-22T08:11:40.500Z,5.20
2022-08-22T08:14:07.683Z,4.60
2022-08-22T08:16:41.673Z,4.45
2022-08-22T08:19:08.521Z,4.70
2022-08-22T08:21:37.657Z,5.05
2022-08-22T08:24:06.583Z,4.30
2022-08-22T08:26:35.732Z,4.40
2022-08-22T08:29:03.517Z,4.55
2022-08-22T08:31:38.131Z,4.38
2022-08-22T08:34:19.942Z,5.03
2022-08-22T08:36:50.186Z,4.78
2022-08-22T08:39:19.136Z,4.53
2022-08-22T08:41:51.390Z,4.45
2022-08-22T08:44:33.118Z,4.90
2022-08-22T08:47:09.766Z,4.88
2022-08-22T08:49:56.782Z,4.57
2022-08-22T08:52:28.650Z,4.55
2022-08-22T08:55:02.278Z,5.38
2022-08-22T08:58:10.307Z,5.13
2022-08-22T09:00:50.793Z,5.75
2022-08-22T09:03:35.239Z,5.03
2022-08-22T09:06:08.414Z,4.70
2022-08-22T09:08:55.959Z,4.78
2022-08-22T09:11:35.048Z,5.05
2022-08-22T09:14:21.393Z,4.47
2022-08-22T09:16:53.853Z,4.63
2022-08-22T09:19:32.577Z,4.57
2022-08-22T09:22:19.897Z,4.43
2022-08-22T09:25:06.383Z,3.53
2022-08-22T09:27:51.243Z,4.65
2022-08-22T09:30:19.851Z,5.47
2022-08-22T09:32:58.364Z,7.22
2022-08-22T09:35:27.552Z,5.30
2022-08-22T09:37:54.006Z,7.20
2022-08-22T09:40:29.166Z,6.80
2022-08-22T09:43:02.370Z,7.15
2022-08-22T09:45:47.119Z,10.85
2022-08-22T09:48:24.566Z,7.63
2022-08-22T09:51:31.887Z,6.22
2022-08-22T09:53:59.447Z,6.70
2022-08-22T09:56:32.309Z,6.90
2022-08-22T09:58:59.478Z,6.20
2022-08-22T10:01:32.818Z,4.93
2022-08-22T10:04:19.526Z,5.22
2022-08-22T10:07:01.621Z,4.07
2022-08-22T10:09:36.055Z,4.28
2022-08-22T10:12:12.914Z,3.30
2022-08-22T10:14:50.524Z,3.55
2022-08-22T10:17:21.979Z,3.45
2022-08-22T10:19:54.880Z,3.83
2022-08-22T10:22:24.508Z,3.05
2022-08-22T10:25:15.639Z,3.40
2022-08-22T10:27:52.199Z,2.65
2022-08-22T10:30:23.215Z,3.72
2022-08-22T10:33:02.416Z,3.15
2022-08-22T10:35:33.999Z,3.17
2022-08-22T10:38:10.726Z,3.00
2022-08-22T10:41:02.402Z,3.70
2022-08-22T10:43:42.972Z,2.90
2022-08-22T10:46:15.579Z,3.20
2022-08-22T10:48:56.037Z,3.83
2022-08-22T10:54:07.498Z,3.78
2022-08-22T10:56:37.869Z,3.08
2022-08-22T10:59:16.291Z,3.22
2022-08-22T11:02:03.090Z,3.55
2022-08-22T11:04:36.153Z,3.20
2022-08-22T11:07:03.282Z,3.17
2022-08-22T11:09:36.309Z,3.20
2022-08-22T11:12:06.824Z,4.15
2022-08-22T11:14:51.319Z,3.03
2022-08-22T11:17:30.214Z,3.05
2022-08-22T11:20:11.691Z,2.80
2022-08-22T11:22:56.560Z,2.83
2022-08-22T11:25:36.019Z,2.80
2022-08-22T11:28:08.932Z,3.40
2022-08-22T11:30:45.411Z,3.75
2022-08-22T11:33:33.913Z,2.90
2022-08-22T11:36:30.898Z,2.67
2022-08-22T11:38:57.664Z,2.70
2022-08-22T11:41:25.091Z,2.72
2022-08-22T11:43:51.416Z,2.88
2022-08-22T11:46:21.508Z,3.63
2022-08-22T11:48:48.843Z,2.50
2022-08-22T11:51:24.973Z,3.05
2022-08-22T11:54:10.361Z,2.20
2022-08-22T11:56:48.971Z,2.97
2022-08-22T11:59:28.900Z,2.72
2022-08-22T12:01:59.710Z,3.10
2022-08-22T12:04:32.650Z,2.78
2022-08-22T12:07:09.828Z,2.83
2022-08-22T12:09:41.696Z,2.63
2022-08-22T12:12:18.797Z,3.03
2022-08-22T12:15:04.667Z,2.65
2022-08-22T12:17:55.027Z,3.45
2022-08-22T12:20:52.288Z,2.80
2022-08-22T12:23:49.540Z,3.30
2022-08-22T12:26:16.508Z,2.75
2022-08-22T12:28:59.881Z,3.00
2022-08-22T12:31:38.366Z,2.60
2022-08-22T12:34:31.429Z,2.65
2022-08-22T12:37:17.748Z,2.67
2022-08-22T12:39:53.513Z,2.63
2022-08-22T12:42:29.475Z,3.08
2022-08-22T12:45:14.469Z,3.22
2022-08-22T12:47:59.851Z,2.97
2022-08-22T12:50:37.537Z,3.35
2022-08-22T12:53:20.328Z,2.70
2022-08-22T12:56:04.390Z,2.70
2022-08-22T12:58:36.907Z,2.30
2022-08-22T13:01:07.162Z,2.58
2022-08-22T13:03:36.721Z,2.33
2022-08-22T13:06:05.464Z,2.35
2022-08-22T13:08:36.916Z,2.13
2022-08-22T13:11:09.798Z,2.40
2022-08-22T13:13:41.384Z,2.17
2022-08-22T13:16:12.935Z,2.33
2022-08-22T13:18:45.561Z,2.20
2022-08-22T13:21:15.212Z,2.20
2022-08-22T13:23:43.645Z,2.40
2022-08-22T13:26:16.458Z,2.00
2022-08-22T13:29:24.730Z,3.10
2022-08-22T13:31:53.592Z,2.03
2022-08-22T13:34:40.176Z,2.42
2022-08-22T13:37:08.378Z,1.83
2022-08-22T13:39:38.738Z,2.13
2022-08-22T13:42:14.304Z,1.85
2022-08-22T13:44:50.119Z,1.73
2022-08-22T13:47:17.654Z,1.92
2022-08-22T13:49:45.986Z,1.63
2022-08-22T13:52:29.312Z,2.03
2022-08-22T13:54:56.651Z,1.90
2022-08-22T13:57:29.152Z,2.72
2022-08-22T14:00:12.128Z,1.90
2022-08-22T14:03:01.505Z,1.88
2022-08-22T14:05:38.271Z,2.10
2022-08-22T14:08:14.685Z,2.17
2022-08-22T14:10:45.715Z,2.10
2022-08-22T14:13:25.382Z,1.90
2022-08-22T14:16:05.625Z,1.98
2022-08-22T14:18:44.381Z,2.00
2022-08-22T14:21:18.482Z,2.15
2022-08-22T14:23:46.416Z,2.38
2022-08-22T14:26:23.556Z,2.03
2022-08-22T14:29:01.318Z,2.20
2022-08-22T14:31:28.878Z,2.30
2022-08-22T14:33:59.835Z,2.30
2022-08-22T14:36:30.373Z,2.05
2022-08-22T14:39:01.891Z,2.03
2022-08-22T14:41:56.135Z,1.92
2022-08-22T14:44:45.272Z,1.95
2022-08-22T14:47:54.698Z,2.30
2022-08-22T14:50:12.001Z,2.20
2022-08-22T14:52:54.017Z,2.50
2022-08-22T14:55:26.406Z,2.20
2022-08-22T14:57:54.519Z,2.40
2022-08-22T15:00:50.071Z,2.13
2022-08-22T15:03:19.568Z,2.30
2022-08-22T15:05:49.607Z,2.30
2022-08-22T15:08:21.278Z,2.35
2022-08-22T15:11:04.984Z,2.15
2022-08-22T15:13:34.780Z,2.45
2022-08-22T15:16:12.899Z,2.00
2022-08-22T15:18:39.857Z,2.10
2022-08-22T15:21:18.306Z,2.17
2022-08-22T15:23:46.685Z,2.70
2022-08-22T15:26:25.303Z,2.33
2022-08-22T15:28:57.153Z,2.38
2022-08-22T15:31:23.654Z,2.10
2022-08-22T15:33:50.341Z,2.15
2022-08-22T15:36:21.397Z,2.47
2022-08-22T15:38:49.472Z,2.20
2022-08-22T15:41:23.072Z,2.60
2022-08-22T15:43:50.839Z,2.33
2022-08-22T15:46:26.188Z,2.45
2022-08-22T15:48:55.737Z,2.28
2022-08-22T15:51:32.193Z,2.03
2022-08-22T15:54:01.514Z,2.47
2022-08-22T15:56:29.902Z,2.17
2022-08-22T15:59:15.172Z,2.63
2022-08-22T16:01:49.767Z,2.10
2022-08-22T16:04:16.460Z,2.45
2022-08-22T16:06:49.070Z,1.90
2022-08-22T16:09:46.443Z,2.15
2022-08-22T16:12:27.456Z,1.90
2022-08-22T16:14:54.006Z,2.10
2022-08-22T16:17:29.471Z,2.35
2022-08-22T16:20:20.038Z,2.00
2022-08-22T16:22:58.950Z,2.15
2022-08-22T16:25:44.125Z,2.08
2022-08-22T16:28:41.530Z,1.83
2022-08-22T16:31:25.233Z,2.17
2022-08-22T16:33:51.886Z,1.95
2022-08-22T16:36:37.237Z,2.05
2022-08-22T16:39:07.984Z,1.85
2022-08-22T16:41:37.458Z,2.03
2022-08-22T16:44:22.216Z,1.92
2022-08-22T16:46:50.422Z,2.17
2022-08-22T16:49:28.164Z,2.10
2022-08-22T16:52:13.614Z,2.20
2022-08-22T16:54:47.812Z,2.20
2022-08-22T16:57:29.666Z,1.98
2022-08-22T16:59:56.086Z,2.20
2022-08-22T17:02:33.149Z,2.10
2022-08-22T17:05:22.907Z,2.15
2022-08-22T17:08:08.161Z,2.42
2022-08-22T17:10:54.963Z,2.17
2022-08-22T17:13:26.458Z,2.40
2022-08-22T17:16:00.524Z,2.03
2022-08-22T17:18:45.684Z,2.55
2022-08-22T17:21:15.139Z,2.08
2022-08-22T17:23:41.559Z,2.17
2022-08-22T17:26:19.019Z,2.20
2022-08-22T17:29:04.432Z,2.40
2022-08-22T17:31:33.900Z,2.28
2022-08-22T17:34:12.021Z,2.40
2022-08-22T17:37:05.458Z,2.03
2022-08-22T17:39:54.101Z,2.20
2022-08-22T17:42:22.366Z,2.40
2022-08-22T17:44:51.776Z,2.58
2022-08-22T17:47:21.585Z,2.38
2022-08-22T17:49:53.888Z,2.50
2022-08-22T17:52:29.549Z,3.00
2022-08-22T17:54:59.332Z,2.80
2022-08-22T17:57:52.233Z,2.35
2022-08-22T18:00:25.608Z,2.40
2022-08-22T18:02:58.883Z,2.58
2022-08-22T18:05:31.448Z,2.60
2022-08-22T18:09:13.394Z,2.60
2022-08-22T18:11:14.581Z,2.72
2022-08-22T18:13:50.088Z,2.50
2022-08-22T18:16:24.533Z,2.67
2022-08-22T18:19:12.296Z,2.83
2022-08-22T18:21:47.147Z,2.67
2022-08-22T18:24:22.623Z,2.63
2022-08-22T18:26:55.980Z,2.90
2022-08-22T18:29:29.437Z,2.38
2022-08-22T18:32:07.981Z,2.30
2022-08-22T18:34:40.637Z,2.72
2022-08-22T18:37:26.421Z,3.03
2022-08-22T18:39:59.739Z,2.60
2022-08-22T18:42:47.296Z,2.95
2022-08-22T18:45:44.117Z,2.60
2022-08-22T18:48:19.625Z,2.40
2022-08-22T18:50:47.253Z,3.10
2022-08-22T18:53:32.601Z,2.80
2022-08-22T18:56:08.943Z,2.60
2022-08-22T18:58:42.343Z,2.72
2022-08-22T19:01:25.042Z,2.92
2022-08-22T19:04:12.738Z,2.97
2022-08-22T19:07:03.738Z,3.30
2022-08-22T19:09:35.919Z,2.70
2022-08-22T19:12:21.111Z,3.08
2022-08-22T19:15:14.204Z,2.60
2022-08-22T19:17:46.902Z,2.63
2022-08-22T19:20:53.115Z,2.67
2022-08-22T19:23:35.868Z,2.72
2022-08-22T19:26:20.884Z,2.90
2022-08-22T19:28:47.705Z,2.90
2022-08-22T19:31:22.619Z,2.75
2022-08-22T19:33:50.867Z,3.00
2022-08-22T19:36:37.536Z,3.50
2022-08-22T19:39:27.276Z,2.97
2022-08-22T19:41:56.786Z,2.90
2022-08-22T19:44:23.116Z,2.70
2022-08-22T19:47:04.858Z,2.92
2022-08-22T19:49:34.383Z,2.50
2022-08-22T19:52:16.510Z,3.22
2022-08-22T19:55:06.202Z,2.90
2022-08-22T19:57:35.685Z,2.80
2022-08-22T20:00:11.667Z,3.10
2022-08-22T20:02:49.382Z,2.92
2022-08-22T20:05:23.061Z,3.10
2022-08-22T20:08:07.892Z,3.28
2022-08-22T20:10:49.658Z,3.40
2022-08-22T20:13:24.161Z,3.20
2022-08-22T20:16:02.100Z,3.50
2022-08-22T20:18:48.728Z,2.97
2022-08-22T20:21:39.166Z,3.93
2022-08-22T20:24:07.331Z,3.95
2022-08-22T20:26:34.271Z,3.78
2022-08-22T20:29:02.897Z,3.60
2022-08-22T20:31:35.691Z,3.85
2022-08-22T20:34:04.070Z,3.60
2022-08-22T20:36:31.067Z,3.90
2022-08-22T20:39:01.745Z,3.47
2022-08-22T20:41:42.719Z,3.75
2022-08-22T20:44:41.642Z,3.72
2022-08-22T20:47:11.484Z,3.75
2022-08-22T20:49:46.839Z,4.03
2022-08-22T20:52:33.532Z,3.70
2022-08-22T20:55:08.240Z,3.65
2022-08-22T20:57:35.569Z,3.55
2022-08-22T21:00:13.564Z,3.33
2022-08-22T21:02:39.959Z,3.60
2022-08-22T21:05:18.364Z,3.70
2022-08-22T21:07:46.147Z,3.92
2022-08-22T21:10:35.354Z,3.05
2022-08-22T21:13:12.504Z,3.67
2022-08-22T21:15:52.086Z,3.70
2022-08-22T21:18:32.210Z,3.88
2022-08-22T21:21:08.074Z,3.90
2022-08-22T21:23:45.206Z,4.55
2022-08-22T21:26:18.688Z,5.03
2022-08-22T21:28:57.368Z,4.43
2022-08-22T21:31:26.768Z,5.18
2022-08-22T21:33:54.358Z,5.80
2022-08-22T21:36:22.649Z,4.75
2022-08-22T21:39:01.621Z,4.70
2022-08-22T21:41:47.441Z,3.72
2022-08-22T21:44:33.214Z,3.90
2022-08-22T21:47:14.986Z,4.10
2022-08-22T21:50:02.509Z,3.90
2022-08-22T21:52:31.050Z,3.70
2022-08-22T21:55:23.859Z,3.83
2022-08-22T21:58:08.738Z,4.13
2022-08-22T22:00:48.803Z,3.90
2022-08-22T22:03:17.215Z,3.60
2022-08-22T22:05:43.977Z,4.13
2022-08-22T22:08:13.856Z,4.53
2022-08-22T22:10:41.534Z,4.07
2022-08-22T22:13:08.408Z,3.63
2022-08-22T22:15:36.930Z,4.30
2022-08-22T22:18:04.211Z,3.90
2022-08-22T22:20:39.311Z,3.90
2022-08-22T22:23:05.868Z,3.78
2022-08-22T22:25:39.825Z,4.28
2022-08-22T22:28:19.885Z,3.97
2022-08-22T22:30:56.590Z,3.80
2022-08-22T22:33:24.789Z,3.92
2022-08-22T22:35:52.735Z,3.63
2022-08-22T22:38:23.771Z,3.92
2022-08-22T22:40:52.709Z,3.58
2022-08-22T22:43:19.316Z,4.03
2022-08-22T22:45:45.685Z,4.68
2022-08-22T22:48:17.502Z,4.13
2022-08-22T22:50:53.612Z,3.97
2022-08-22T22:53:21.440Z,4.00
2022-08-22T22:56:05.583Z,3.97
2022-08-22T22:58:33.419Z,4.32
2022-08-22T23:01:17.947Z,4.40
2022-08-22T23:03:44.964Z,4.22
2022-08-22T23:06:15.897Z,4.60
2022-08-22T23:08:42.642Z,4.65
2022-08-22T23:11:15.710Z,4.40
2022-08-22T23:13:42.874Z,4.55
2022-08-22T23:16:11.270Z,4.32
2022-08-22T23:18:37.699Z,4.40
2022-08-22T23:21:19.456Z,4.40
2022-08-22T23:23:46.834Z,4.78
2022-08-22T23:26:13.421Z,4.50
2022-08-22T23:28:39.906Z,4.35
2022-08-22T23:31:13.827Z,4.15
2022-08-22T23:33:40.330Z,4.78
2022-08-22T23:36:24.856Z,4.43
2022-08-22T23:38:51.693Z,4.10
2022-08-22T23:41:21.491Z,4.13
2022-08-22T23:43:50.505Z,4.80
2022-08-22T23:46:17.906Z,4.80
2022-08-22T23:48:44.478Z,4.78
2022-08-22T23:51:11.756Z,4.65
2022-08-22T23:53:38.276Z,4.32
2022-08-22T23:56:19.672Z,3.97
2022-08-22T23:58:46.813Z,4.72
